sensor_id;sensor_type;location;lat;lon;timestamp;P1;durP1;ratioP1;P2;durP2;ratioP2
12208;SDS011;6167;43.080;25.634;2023-07-31T00:01:34;3.75;;;3.45;;
12208;SDS011;6167;43.080;25.634;2023-07-31T00:04:01;3.83;;;3.53;;
12208;SDS011;6167;43.080;25.634;2023-07-31T00:06:28;3.72;;;3.20;;
12208;SDS011;6167;43.080;25.634;2023-07-31T00:08:56;4.00;;;3.70;;
12208;SDS011;6167;43.080;25.634;2023-07-31T00:11:22;4.30;;;3.90;;
12208;SDS011;6167;43.080;25.634;2023-07-31T00:13:49;4.15;;;3.65;;
12208;SDS011;6167;43.080;25.634;2023-07-31T00:16:16;3.25;;;3.05;;
12208;SDS011;6167;43.080;25.634;2023-07-31T00:18:44;3.78;;;3.47;;
12208;SDS011;6167;43.080;25.634;2023-07-31T00:21:10;3.63;;;3.33;;
12208;SDS011;6167;43.080;25.634;2023-07-31T00:23:37;3.78;;;3.58;;
12208;SDS011;6167;43.080;25.634;2023-07-31T00:26:04;4.35;;;4.05;;
12208;SDS011;6167;43.080;25.634;2023-07-31T00:28:31;4.30;;;4.00;;
12208;SDS011;6167;43.080;25.634;2023-07-31T00:30:57;4.97;;;4.68;;
12208;SDS011;6167;43.080;25.634;2023-07-31T00:33:24;5.07;;;4.07;;
12208;SDS011;6167;43.080;25.634;2023-07-31T00:36:02;5.05;;;4.53;;
12208;SDS011;6167;43.080;25.634;2023-07-31T00:38:51;4.53;;;4.13;;
12208;SDS011;6167;43.080;25.634;2023-07-31T00:41:19;5.40;;;4.50;;
12208;SDS011;6167;43.080;25.634;2023-07-31T00:44:07;4.40;;;4.10;;
12208;SDS011;6167;43.080;25.634;2023-07-31T00:46:39;4.78;;;4.47;;
12208;SDS011;6167;43.080;25.634;2023-07-31T00:49:06;5.25;;;4.85;;
12208;SDS011;6167;43.080;25.634;2023-07-31T00:51:38;4.68;;;4.38;;
12208;SDS011;6167;43.080;25.634;2023-07-31T00:54:08;5.13;;;4.72;;
12208;SDS011;6167;43.080;25.634;2023-07-31T00:56:37;4.68;;;4.38;;
12208;SDS011;6167;43.080;25.634;2023-07-31T00:59:14;5.43;;;5.03;;
12208;SDS011;6167;43.080;25.634;2023-07-31T01:01:44;5.13;;;4.72;;
12208;SDS011;6167;43.080;25.634;2023-07-31T01:04:30;5.50;;;5.10;;
12208;SDS011;6167;43.080;25.634;2023-07-31T01:13:00;5.80;;;5.40;;
12208;SDS011;6167;43.080;25.634;2023-07-31T01:15:33;6.43;;;5.82;;
12208;SDS011;6167;43.080;25.634;2023-07-31T01:18:02;6.18;;;5.68;;
12208;SDS011;6167;43.080;25.634;2023-07-31T01:20:37;6.00;;;5.55;;
12208;SDS011;6167;43.080;25.634;2023-07-31T01:23:08;6.13;;;5.70;;
12208;SDS011;6167;43.080;25.634;2023-07-31T01:34:02;6.15;;;5.65;;
12208;SDS011;6167;43.080;25.634;2023-07-31T01:36:39;6.50;;;6.00;;
12208;SDS011;6167;43.080;25.634;2023-07-31T01:39:29;7.53;;;6.93;;
12208;SDS011;6167;43.080;25.634;2023-07-31T01:42:30;7.20;;;6.70;;
12208;SDS011;6167;43.080;25.634;2023-07-31T01:45:33;7.00;;;6.38;;
12208;SDS011;6167;43.080;25.634;2023-07-31T01:51:12;8.43;;;7.82;;
12208;SDS011;6167;43.080;25.634;2023-07-31T01:53:39;7.75;;;7.10;;
12208;SDS011;6167;43.080;25.634;2023-07-31T01:56:06;8.25;;;7.57;;
12208;SDS011;6167;43.080;25.634;2023-07-31T01:58:34;7.85;;;7.15;;
12208;SDS011;6167;43.080;25.634;2023-07-31T02:01:07;9.05;;;8.25;;
12208;SDS011;6167;43.080;25.634;2023-07-31T02:03:40;10.00;;;9.18;;
12208;SDS011;6167;43.080;25.634;2023-07-31T02:09:00;10.70;;;9.80;;
12208;SDS011;6167;43.080;25.634;2023-07-31T02:11:26;11.23;;;10.10;;
12208;SDS011;6167;43.080;25.634;2023-07-31T02:13:54;10.18;;;9.32;;
12208;SDS011;6167;43.080;25.634;2023-07-31T02:16:24;9.80;;;9.10;;
12208;SDS011;6167;43.080;25.634;2023-07-31T02:18:54;9.38;;;8.55;;
12208;SDS011;6167;43.080;25.634;2023-07-31T02:21:21;10.38;;;9.57;;
12208;SDS011;6167;43.080;25.634;2023-07-31T02:23:58;10.73;;;9.82;;
12208;SDS011;6167;43.080;25.634;2023-07-31T02:26:29;9.95;;;9.25;;
12208;SDS011;6167;43.080;25.634;2023-07-31T02:28:57;11.05;;;10.05;;
12208;SDS011;6167;43.080;25.634;2023-07-31T02:31:37;11.02;;;10.13;;
12208;SDS011;6167;43.080;25.634;2023-07-31T02:34:04;11.30;;;10.30;;
12208;SDS011;6167;43.080;25.634;2023-07-31T02:36:30;10.93;;;9.93;;
12208;SDS011;6167;43.080;25.634;2023-07-31T02:38:57;11.45;;;10.55;;
12208;SDS011;6167;43.080;25.634;2023-07-31T02:41:25;11.85;;;10.75;;
12208;SDS011;6167;43.080;25.634;2023-07-31T02:43:54;11.63;;;10.65;;
12208;SDS011;6167;43.080;25.634;2023-07-31T02:46:21;12.25;;;11.30;;
12208;SDS011;6167;43.080;25.634;2023-07-31T02:51:42;11.60;;;10.70;;
12208;SDS011;6167;43.080;25.634;2023-07-31T02:57:12;13.48;;;12.27;;
12208;SDS011;6167;43.080;25.634;2023-07-31T02:59:41;13.18;;;12.02;;
12208;SDS011;6167;43.080;25.634;2023-07-31T03:02:10;13.27;;;12.15;;
12208;SDS011;6167;43.080;25.634;2023-07-31T03:04:37;13.95;;;12.68;;
12208;SDS011;6167;43.080;25.634;2023-07-31T03:07:04;13.20;;;12.00;;
12208;SDS011;6167;43.080;25.634;2023-07-31T03:09:31;13.45;;;12.40;;
12208;SDS011;6167;43.080;25.634;2023-07-31T03:11:57;13.73;;;12.65;;
12208;SDS011;6167;43.080;25.634;2023-07-31T03:14:24;12.80;;;11.68;;
12208;SDS011;6167;43.080;25.634;2023-07-31T03:16:53;14.25;;;13.05;;
12208;SDS011;6167;43.080;25.634;2023-07-31T03:19:20;13.32;;;12.32;;
12208;SDS011;6167;43.080;25.634;2023-07-31T03:21:46;13.50;;;12.45;;
12208;SDS011;6167;43.080;25.634;2023-07-31T03:24:13;12.27;;;11.30;;
12208;SDS011;6167;43.080;25.634;2023-07-31T03:26:40;12.10;;;11.05;;
12208;SDS011;6167;43.080;25.634;2023-07-31T03:29:07;12.63;;;11.63;;
12208;SDS011;6167;43.080;25.634;2023-07-31T03:31:34;11.73;;;10.77;;
12208;SDS011;6167;43.080;25.634;2023-07-31T03:34:02;11.60;;;10.50;;
12208;SDS011;6167;43.080;25.634;2023-07-31T03:36:29;12.35;;;11.43;;
12208;SDS011;6167;43.080;25.634;2023-07-31T03:38:56;12.32;;;11.27;;
12208;SDS011;6167;43.080;25.634;2023-07-31T03:41:22;12.65;;;11.55;;
12208;SDS011;6167;43.080;25.634;2023-07-31T03:43:49;12.13;;;11.13;;
12208;SDS011;6167;43.080;25.634;2023-07-31T03:46:17;11.90;;;10.90;;
12208;SDS011;6167;43.080;25.634;2023-07-31T03:48:44;12.45;;;11.55;;
12208;SDS011;6167;43.080;25.634;2023-07-31T03:51:12;12.52;;;11.48;;
12208;SDS011;6167;43.080;25.634;2023-07-31T03:53:38;13.25;;;12.23;;
12208;SDS011;6167;43.080;25.634;2023-07-31T03:56:05;14.95;;;13.73;;
12208;SDS011;6167;43.080;25.634;2023-07-31T04:01:30;14.52;;;13.32;;
12208;SDS011;6167;43.080;25.634;2023-07-31T04:03:56;17.73;;;16.30;;
12208;SDS011;6167;43.080;25.634;2023-07-31T04:06:27;15.15;;;13.93;;
12208;SDS011;6167;43.080;25.634;2023-07-31T04:08:54;14.02;;;12.90;;
12208;SDS011;6167;43.080;25.634;2023-07-31T04:11:21;12.15;;;11.15;;
12208;SDS011;6167;43.080;25.634;2023-07-31T04:13:47;13.50;;;12.23;;
12208;SDS011;6167;43.080;25.634;2023-07-31T04:16:14;14.02;;;12.93;;
12208;SDS011;6167;43.080;25.634;2023-07-31T04:18:40;15.48;;;13.88;;
12208;SDS011;6167;43.080;25.634;2023-07-31T04:21:07;15.25;;;14.05;;
12208;SDS011;6167;43.080;25.634;2023-07-31T04:23:37;16.90;;;15.52;;
12208;SDS011;6167;43.080;25.634;2023-07-31T04:26:03;16.65;;;15.18;;
12208;SDS011;6167;43.080;25.634;2023-07-31T04:28:30;17.50;;;16.17;;
12208;SDS011;6167;43.080;25.634;2023-07-31T04:30:59;14.68;;;13.38;;
12208;SDS011;6167;43.080;25.634;2023-07-31T04:33:26;17.42;;;16.02;;
12208;SDS011;6167;43.080;25.634;2023-07-31T04:35:53;17.23;;;15.65;;
12208;SDS011;6167;43.080;25.634;2023-07-31T04:38:20;17.83;;;16.42;;
12208;SDS011;6167;43.080;25.634;2023-07-31T04:40:48;18.48;;;16.88;;
12208;SDS011;6167;43.080;25.634;2023-07-31T04:43:15;17.25;;;15.85;;
12208;SDS011;6167;43.080;25.634;2023-07-31T04:45:42;17.85;;;16.25;;
12208;SDS011;6167;43.080;25.634;2023-07-31T04:48:12;15.63;;;14.23;;
12208;SDS011;6167;43.080;25.634;2023-07-31T04:50:39;14.68;;;13.43;;
12208;SDS011;6167;43.080;25.634;2023-07-31T04:53:06;13.73;;;12.63;;
12208;SDS011;6167;43.080;25.634;2023-07-31T04:55:32;15.45;;;14.07;;
12208;SDS011;6167;43.080;25.634;2023-07-31T04:58:00;15.55;;;14.15;;
12208;SDS011;6167;43.080;25.634;2023-07-31T05:00:27;15.43;;;14.13;;
12208;SDS011;6167;43.080;25.634;2023-07-31T05:02:54;14.30;;;13.13;;
12208;SDS011;6167;43.080;25.634;2023-07-31T05:05:21;14.07;;;12.75;;
12208;SDS011;6167;43.080;25.634;2023-07-31T05:07:47;14.38;;;12.90;;
12208;SDS011;6167;43.080;25.634;2023-07-31T05:10:14;14.43;;;13.23;;
12208;SDS011;6167;43.080;25.634;2023-07-31T05:12:41;13.18;;;11.95;;
12208;SDS011;6167;43.080;25.634;2023-07-31T05:15:10;12.90;;;11.90;;
12208;SDS011;6167;43.080;25.634;2023-07-31T05:17:37;13.75;;;12.63;;
12208;SDS011;6167;43.080;25.634;2023-07-31T05:20:04;13.40;;;12.25;;
12208;SDS011;6167;43.080;25.634;2023-07-31T05:22:31;13.55;;;12.45;;
12208;SDS011;6167;43.080;25.634;2023-07-31T05:24:57;13.00;;;11.88;;
12208;SDS011;6167;43.080;25.634;2023-07-31T05:27:24;13.52;;;12.43;;
12208;SDS011;6167;43.080;25.634;2023-07-31T05:29:51;13.88;;;12.80;;
12208;SDS011;6167;43.080;25.634;2023-07-31T05:32:19;13.63;;;12.45;;
12208;SDS011;6167;43.080;25.634;2023-07-31T05:34:46;13.05;;;11.85;;
12208;SDS011;6167;43.080;25.634;2023-07-31T05:37:13;12.60;;;11.50;;
12208;SDS011;6167;43.080;25.634;2023-07-31T05:39:40;14.57;;;13.43;;
12208;SDS011;6167;43.080;25.634;2023-07-31T05:42:06;14.23;;;13.13;;
12208;SDS011;6167;43.080;25.634;2023-07-31T05:44:34;15.18;;;13.98;;
12208;SDS011;6167;43.080;25.634;2023-07-31T05:47:00;15.23;;;14.02;;
12208;SDS011;6167;43.080;25.634;2023-07-31T05:49:28;16.33;;;14.93;;
12208;SDS011;6167;43.080;25.634;2023-07-31T05:51:55;16.45;;;15.00;;
12208;SDS011;6167;43.080;25.634;2023-07-31T05:54:24;16.58;;;15.10;;
12208;SDS011;6167;43.080;25.634;2023-07-31T05:56:51;15.73;;;14.40;;
12208;SDS011;6167;43.080;25.634;2023-07-31T05:59:18;15.95;;;14.70;;
12208;SDS011;6167;43.080;25.634;2023-07-31T06:01:45;15.93;;;13.82;;
12208;SDS011;6167;43.080;25.634;2023-07-31T06:04:12;15.40;;;14.10;;
12208;SDS011;6167;43.080;25.634;2023-07-31T06:06:45;13.15;;;12.05;;
12208;SDS011;6167;43.080;25.634;2023-07-31T06:09:12;13.50;;;12.30;;
12208;SDS011;6167;43.080;25.634;2023-07-31T06:11:39;13.10;;;11.95;;
12208;SDS011;6167;43.080;25.634;2023-07-31T06:14:08;14.00;;;12.52;;
12208;SDS011;6167;43.080;25.634;2023-07-31T06:16:35;12.45;;;11.35;;
12208;SDS011;6167;43.080;25.634;2023-07-31T06:19:02;11.77;;;10.77;;
12208;SDS011;6167;43.080;25.634;2023-07-31T06:21:29;13.32;;;11.45;;
12208;SDS011;6167;43.080;25.634;2023-07-31T06:23:58;16.27;;;14.57;;
12208;SDS011;6167;43.080;25.634;2023-07-31T06:26:24;13.30;;;11.95;;
12208;SDS011;6167;43.080;25.634;2023-07-31T06:28:51;13.48;;;12.10;;
12208;SDS011;6167;43.080;25.634;2023-07-31T06:31:18;17.50;;;12.07;;
12208;SDS011;6167;43.080;25.634;2023-07-31T06:33:51;14.25;;;12.35;;
12208;SDS011;6167;43.080;25.634;2023-07-31T06:36:17;13.32;;;12.13;;
12208;SDS011;6167;43.080;25.634;2023-07-31T06:38:44;11.93;;;10.93;;
12208;SDS011;6167;43.080;25.634;2023-07-31T06:41:12;14.88;;;12.35;;
12208;SDS011;6167;43.080;25.634;2023-07-31T06:43:39;11.75;;;10.57;;
12208;SDS011;6167;43.080;25.634;2023-07-31T06:46:06;12.70;;;11.60;;
12208;SDS011;6167;43.080;25.634;2023-07-31T06:48:33;13.63;;;12.40;;
12208;SDS011;6167;43.080;25.634;2023-07-31T06:51:00;12.50;;;11.40;;
12208;SDS011;6167;43.080;25.634;2023-07-31T06:53:27;11.55;;;10.60;;
12208;SDS011;6167;43.080;25.634;2023-07-31T06:55:54;12.55;;;11.20;;
12208;SDS011;6167;43.080;25.634;2023-07-31T06:58:22;12.40;;;11.27;;
12208;SDS011;6167;43.080;25.634;2023-07-31T07:00:49;12.68;;;11.57;;
12208;SDS011;6167;43.080;25.634;2023-07-31T07:03:16;14.55;;;11.43;;
12208;SDS011;6167;43.080;25.634;2023-07-31T07:05:43;12.50;;;11.02;;
12208;SDS011;6167;43.080;25.634;2023-07-31T07:08:09;12.65;;;11.23;;
12208;SDS011;6167;43.080;25.634;2023-07-31T07:10:36;14.65;;;11.60;;
12208;SDS011;6167;43.080;25.634;2023-07-31T07:13:03;13.00;;;10.90;;
12208;SDS011;6167;43.080;25.634;2023-07-31T07:15:34;11.75;;;10.75;;
12208;SDS011;6167;43.080;25.634;2023-07-31T07:18:01;11.65;;;10.65;;
12208;SDS011;6167;43.080;25.634;2023-07-31T07:20:28;12.55;;;11.52;;
12208;SDS011;6167;43.080;25.634;2023-07-31T07:22:55;11.70;;;10.70;;
12208;SDS011;6167;43.080;25.634;2023-07-31T07:25:22;11.88;;;10.70;;
12208;SDS011;6167;43.080;25.634;2023-07-31T07:27:55;11.63;;;10.52;;
12208;SDS011;6167;43.080;25.634;2023-07-31T07:30:21;11.65;;;10.45;;
12208;SDS011;6167;43.080;25.634;2023-07-31T07:32:58;11.45;;;10.25;;
12208;SDS011;6167;43.080;25.634;2023-07-31T07:35:25;10.23;;;9.23;;
12208;SDS011;6167;43.080;25.634;2023-07-31T07:37:51;10.73;;;9.73;;
12208;SDS011;6167;43.080;25.634;2023-07-31T07:40:18;10.57;;;9.68;;
12208;SDS011;6167;43.080;25.634;2023-07-31T07:42:45;10.98;;;9.90;;
12208;SDS011;6167;43.080;25.634;2023-07-31T07:45:12;10.85;;;9.85;;
12208;SDS011;6167;43.080;25.634;2023-07-31T07:47:40;10.35;;;9.45;;
12208;SDS011;6167;43.080;25.634;2023-07-31T07:50:10;10.25;;;9.35;;
12208;SDS011;6167;43.080;25.634;2023-07-31T07:52:37;10.48;;;9.43;;
12208;SDS011;6167;43.080;25.634;2023-07-31T07:55:04;10.27;;;9.38;;
12208;SDS011;6167;43.080;25.634;2023-07-31T07:57:31;9.75;;;8.85;;
12208;SDS011;6167;43.080;25.634;2023-07-31T07:59:58;9.48;;;8.68;;
12208;SDS011;6167;43.080;25.634;2023-07-31T08:02:25;9.70;;;8.80;;
12208;SDS011;6167;43.080;25.634;2023-07-31T08:04:51;9.43;;;8.60;;
12208;SDS011;6167;43.080;25.634;2023-07-31T08:07:20;10.05;;;9.05;;
12208;SDS011;6167;43.080;25.634;2023-07-31T08:09:46;8.45;;;7.75;;
12208;SDS011;6167;43.080;25.634;2023-07-31T08:12:13;8.65;;;7.90;;
12208;SDS011;6167;43.080;25.634;2023-07-31T08:14:40;8.93;;;8.02;;
12208;SDS011;6167;43.080;25.634;2023-07-31T08:17:07;8.88;;;8.18;;
12208;SDS011;6167;43.080;25.634;2023-07-31T08:19:34;9.32;;;8.27;;
12208;SDS011;6167;43.080;25.634;2023-07-31T08:22:07;8.05;;;7.35;;
12208;SDS011;6167;43.080;25.634;2023-07-31T08:24:36;8.00;;;7.30;;
12208;SDS011;6167;43.080;25.634;2023-07-31T08:27:02;8.85;;;8.15;;
12208;SDS011;6167;43.080;25.634;2023-07-31T08:29:29;7.80;;;7.13;;
12208;SDS011;6167;43.080;25.634;2023-07-31T08:31:57;7.82;;;7.18;;
12208;SDS011;6167;43.080;25.634;2023-07-31T08:34:24;8.02;;;7.40;;
12208;SDS011;6167;43.080;25.634;2023-07-31T08:36:51;8.43;;;7.63;;
12208;SDS011;6167;43.080;25.634;2023-07-31T08:39:18;8.15;;;7.45;;
12208;SDS011;6167;43.080;25.634;2023-07-31T08:41:46;7.78;;;7.13;;
12208;SDS011;6167;43.080;25.634;2023-07-31T08:44:13;8.57;;;7.60;;
12208;SDS011;6167;43.080;25.634;2023-07-31T08:46:40;8.60;;;7.80;;
12208;SDS011;6167;43.080;25.634;2023-07-31T08:49:07;10.70;;;9.80;;
12208;SDS011;6167;43.080;25.634;2023-07-31T08:51:39;9.27;;;8.48;;
12208;SDS011;6167;43.080;25.634;2023-07-31T08:54:07;8.70;;;7.90;;
12208;SDS011;6167;43.080;25.634;2023-07-31T08:56:34;9.07;;;7.15;;
12208;SDS011;6167;43.080;25.634;2023-07-31T08:59:05;10.30;;;8.18;;
12208;SDS011;6167;43.080;25.634;2023-07-31T09:01:38;9.90;;;8.93;;
12208;SDS011;6167;43.080;25.634;2023-07-31T09:04:07;8.25;;;7.45;;
12208;SDS011;6167;43.080;25.634;2023-07-31T09:06:37;8.13;;;7.43;;
12208;SDS011;6167;43.080;25.634;2023-07-31T09:12:03;8.75;;;7.95;;
12208;SDS011;6167;43.080;25.634;2023-07-31T09:14:32;9.88;;;8.90;;
12208;SDS011;6167;43.080;25.634;2023-07-31T09:16:58;9.65;;;8.85;;
12208;SDS011;6167;43.080;25.634;2023-07-31T09:19:26;20.58;;;14.15;;
12208;SDS011;6167;43.080;25.634;2023-07-31T09:21:53;11.70;;;10.50;;
12208;SDS011;6167;43.080;25.634;2023-07-31T09:24:26;9.77;;;8.80;;
12208;SDS011;6167;43.080;25.634;2023-07-31T09:26:54;7.57;;;6.88;;
12208;SDS011;6167;43.080;25.634;2023-07-31T09:29:24;7.10;;;6.50;;
12208;SDS011;6167;43.080;25.634;2023-07-31T09:34:38;7.60;;;7.00;;
12208;SDS011;6167;43.080;25.634;2023-07-31T09:37:05;7.20;;;6.60;;
12208;SDS011;6167;43.080;25.634;2023-07-31T09:39:35;7.85;;;7.15;;
12208;SDS011;6167;43.080;25.634;2023-07-31T09:42:11;5.65;;;5.25;;
12208;SDS011;6167;43.080;25.634;2023-07-31T09:44:38;5.93;;;5.43;;
12208;SDS011;6167;43.080;25.634;2023-07-31T09:47:06;6.15;;;5.65;;
12208;SDS011;6167;43.080;25.634;2023-07-31T09:49:33;6.10;;;5.60;;
12208;SDS011;6167;43.080;25.634;2023-07-31T09:52:02;5.97;;;5.47;;
12208;SDS011;6167;43.080;25.634;2023-07-31T09:54:38;5.45;;;4.95;;
12208;SDS011;6167;43.080;25.634;2023-07-31T09:57:05;5.18;;;4.78;;
12208;SDS011;6167;43.080;25.634;2023-07-31T09:59:32;6.20;;;5.70;;
12208;SDS011;6167;43.080;25.634;2023-07-31T10:01:59;5.78;;;5.28;;
12208;SDS011;6167;43.080;25.634;2023-07-31T10:04:26;5.10;;;4.70;;
12208;SDS011;6167;43.080;25.634;2023-07-31T10:06:53;5.22;;;4.80;;
12208;SDS011;6167;43.080;25.634;2023-07-31T10:09:23;5.22;;;4.82;;
12208;SDS011;6167;43.080;25.634;2023-07-31T10:11:53;5.60;;;5.10;;
12208;SDS011;6167;43.080;25.634;2023-07-31T10:14:22;5.68;;;5.03;;
12208;SDS011;6167;43.080;25.634;2023-07-31T10:17:01;10.82;;;7.35;;
12208;SDS011;6167;43.080;25.634;2023-07-31T10:19:28;6.03;;;5.53;;
12208;SDS011;6167;43.080;25.634;2023-07-31T10:21:59;5.70;;;5.20;;
12208;SDS011;6167;43.080;25.634;2023-07-31T10:24:30;5.88;;;5.30;;
12208;SDS011;6167;43.080;25.634;2023-07-31T10:27:01;5.78;;;5.28;;
12208;SDS011;6167;43.080;25.634;2023-07-31T10:29:29;5.18;;;4.88;;
12208;SDS011;6167;43.080;25.634;2023-07-31T10:31:57;5.88;;;5.25;;
12208;SDS011;6167;43.080;25.634;2023-07-31T10:34:25;6.18;;;5.68;;
12208;SDS011;6167;43.080;25.634;2023-07-31T10:39:39;6.18;;;5.68;;
12208;SDS011;6167;43.080;25.634;2023-07-31T10:42:12;7.30;;;6.70;;
12208;SDS011;6167;43.080;25.634;2023-07-31T10:44:43;6.63;;;6.00;;
12208;SDS011;6167;43.080;25.634;2023-07-31T10:47:10;6.53;;;6.03;;
12208;SDS011;6167;43.080;25.634;2023-07-31T10:49:36;6.25;;;5.85;;
12208;SDS011;6167;43.080;25.634;2023-07-31T10:52:05;5.85;;;5.35;;
12208;SDS011;6167;43.080;25.634;2023-07-31T10:54:39;6.90;;;6.22;;
12208;SDS011;6167;43.080;25.634;2023-07-31T10:57:18;7.30;;;6.72;;
12208;SDS011;6167;43.080;25.634;2023-07-31T10:59:45;6.30;;;5.80;;
12208;SDS011;6167;43.080;25.634;2023-07-31T11:05:07;5.57;;;5.07;;
12208;SDS011;6167;43.080;25.634;2023-07-31T11:07:46;6.35;;;5.78;;
12208;SDS011;6167;43.080;25.634;2023-07-31T11:10:19;7.30;;;6.60;;
12208;SDS011;6167;43.080;25.634;2023-07-31T11:12:54;6.72;;;6.22;;
12208;SDS011;6167;43.080;25.634;2023-07-31T11:15:23;6.97;;;6.25;;
12208;SDS011;6167;43.080;25.634;2023-07-31T11:17:54;6.60;;;6.03;;
12208;SDS011;6167;43.080;25.634;2023-07-31T11:20:23;6.45;;;5.85;;
12208;SDS011;6167;43.080;25.634;2023-07-31T11:22:50;6.85;;;6.35;;
12208;SDS011;6167;43.080;25.634;2023-07-31T11:25:22;6.82;;;6.13;;
12208;SDS011;6167;43.080;25.634;2023-07-31T11:27:49;6.40;;;5.90;;
12208;SDS011;6167;43.080;25.634;2023-07-31T11:30:19;5.97;;;5.40;;
12208;SDS011;6167;43.080;25.634;2023-07-31T11:32:45;6.20;;;5.63;;
12208;SDS011;6167;43.080;25.634;2023-07-31T11:35:13;7.55;;;5.68;;
12208;SDS011;6167;43.080;25.634;2023-07-31T11:37:42;6.00;;;5.40;;
12208;SDS011;6167;43.080;25.634;2023-07-31T11:40:10;5.40;;;5.00;;
12208;SDS011;6167;43.080;25.634;2023-07-31T11:42:39;5.88;;;5.38;;
12208;SDS011;6167;43.080;25.634;2023-07-31T11:45:08;5.88;;;5.45;;
12208;SDS011;6167;43.080;25.634;2023-07-31T11:47:44;6.30;;;5.47;;
12208;SDS011;6167;43.080;25.634;2023-07-31T11:50:11;6.40;;;5.90;;
12208;SDS011;6167;43.080;25.634;2023-07-31T11:52:40;5.72;;;5.32;;
12208;SDS011;6167;43.080;25.634;2023-07-31T11:55:08;7.13;;;6.63;;
12208;SDS011;6167;43.080;25.634;2023-07-31T11:57:39;6.28;;;5.78;;
12208;SDS011;6167;43.080;25.634;2023-07-31T12:00:06;6.00;;;5.60;;
12208;SDS011;6167;43.080;25.634;2023-07-31T12:02:36;6.78;;;6.28;;
12208;SDS011;6167;43.080;25.634;2023-07-31T12:05:05;6.88;;;6.25;;
12208;SDS011;6167;43.080;25.634;2023-07-31T12:07:42;6.18;;;5.78;;
12208;SDS011;6167;43.080;25.634;2023-07-31T12:10:09;6.60;;;6.10;;
12208;SDS011;6167;43.080;25.634;2023-07-31T12:12:36;6.60;;;5.90;;
12208;SDS011;6167;43.080;25.634;2023-07-31T12:15:05;6.07;;;5.68;;
12208;SDS011;6167;43.080;25.634;2023-07-31T12:17:40;6.22;;;5.63;;
12208;SDS011;6167;43.080;25.634;2023-07-31T12:20:08;5.78;;;5.30;;
12208;SDS011;6167;43.080;25.634;2023-07-31T12:22:34;6.75;;;6.15;;
12208;SDS011;6167;43.080;25.634;2023-07-31T12:25:01;5.80;;;5.40;;
12208;SDS011;6167;43.080;25.634;2023-07-31T12:27:32;6.15;;;5.65;;
12208;SDS011;6167;43.080;25.634;2023-07-31T12:29:59;5.47;;;5.07;;
12208;SDS011;6167;43.080;25.634;2023-07-31T12:32:29;6.25;;;5.70;;
12208;SDS011;6167;43.080;25.634;2023-07-31T12:34:59;5.90;;;5.50;;
12208;SDS011;6167;43.080;25.634;2023-07-31T12:37:26;5.95;;;5.55;;
12208;SDS011;6167;43.080;25.634;2023-07-31T12:39:53;5.80;;;5.40;;
12208;SDS011;6167;43.080;25.634;2023-07-31T12:42:19;6.00;;;5.60;;
12208;SDS011;6167;43.080;25.634;2023-07-31T12:44:48;6.28;;;5.85;;
12208;SDS011;6167;43.080;25.634;2023-07-31T12:47:14;6.93;;;6.43;;
12208;SDS011;6167;43.080;25.634;2023-07-31T12:49:44;7.22;;;6.50;;
12208;SDS011;6167;43.080;25.634;2023-07-31T12:52:12;6.70;;;6.20;;
12208;SDS011;6167;43.080;25.634;2023-07-31T12:54:39;7.60;;;6.82;;
12208;SDS011;6167;43.080;25.634;2023-07-31T12:57:05;6.78;;;6.05;;
12208;SDS011;6167;43.080;25.634;2023-07-31T12:59:32;7.20;;;6.70;;
12208;SDS011;6167;43.080;25.634;2023-07-31T13:01:59;6.00;;;5.50;;
12208;SDS011;6167;43.080;25.634;2023-07-31T13:04:26;6.35;;;5.85;;
12208;SDS011;6167;43.080;25.634;2023-07-31T13:06:54;6.00;;;5.60;;
12208;SDS011;6167;43.080;25.634;2023-07-31T13:09:21;6.10;;;5.70;;
12208;SDS011;6167;43.080;25.634;2023-07-31T13:11:48;6.72;;;6.20;;
12208;SDS011;6167;43.080;25.634;2023-07-31T13:14:18;7.40;;;6.70;;
12208;SDS011;6167;43.080;25.634;2023-07-31T13:16:45;6.50;;;6.00;;
12208;SDS011;6167;43.080;25.634;2023-07-31T13:19:12;6.50;;;5.95;;
12208;SDS011;6167;43.080;25.634;2023-07-31T13:21:39;7.25;;;6.65;;
12208;SDS011;6167;43.080;25.634;2023-07-31T13:24:08;8.48;;;7.53;;
12208;SDS011;6167;43.080;25.634;2023-07-31T13:26:36;8.25;;;7.45;;
12208;SDS011;6167;43.080;25.634;2023-07-31T13:29:02;6.13;;;5.70;;
12208;SDS011;6167;43.080;25.634;2023-07-31T13:31:29;6.10;;;5.70;;
12208;SDS011;6167;43.080;25.634;2023-07-31T13:33:56;6.38;;;5.88;;
12208;SDS011;6167;43.080;25.634;2023-07-31T13:36:23;6.32;;;5.82;;
12208;SDS011;6167;43.080;25.634;2023-07-31T13:38:51;6.78;;;6.28;;
12208;SDS011;6167;43.080;25.634;2023-07-31T13:41:21;7.20;;;6.70;;
12208;SDS011;6167;43.080;25.634;2023-07-31T13:43:48;6.95;;;6.32;;
12208;SDS011;6167;43.080;25.634;2023-07-31T13:46:17;6.80;;;6.20;;
12208;SDS011;6167;43.080;25.634;2023-07-31T13:48:44;7.10;;;6.55;;
12208;SDS011;6167;43.080;25.634;2023-07-31T13:51:11;6.88;;;6.38;;
12208;SDS011;6167;43.080;25.634;2023-07-31T13:53:37;7.28;;;6.68;;
12208;SDS011;6167;43.080;25.634;2023-07-31T13:56:07;6.72;;;6.13;;
12208;SDS011;6167;43.080;25.634;2023-07-31T13:58:40;7.30;;;6.63;;
12208;SDS011;6167;43.080;25.634;2023-07-31T14:01:07;7.43;;;6.75;;
12208;SDS011;6167;43.080;25.634;2023-07-31T14:03:34;7.43;;;6.93;;
12208;SDS011;6167;43.080;25.634;2023-07-31T14:06:00;8.13;;;7.32;;
12208;SDS011;6167;43.080;25.634;2023-07-31T14:08:27;7.75;;;7.10;;
12208;SDS011;6167;43.080;25.634;2023-07-31T14:10:54;6.85;;;6.35;;
12208;SDS011;6167;43.080;25.634;2023-07-31T14:13:22;7.30;;;6.75;;
12208;SDS011;6167;43.080;25.634;2023-07-31T14:15:50;10.63;;;9.63;;
12208;SDS011;6167;43.080;25.634;2023-07-31T14:18:18;8.77;;;8.02;;
12208;SDS011;6167;43.080;25.634;2023-07-31T14:20:44;13.80;;;12.20;;
12208;SDS011;6167;43.080;25.634;2023-07-31T14:23:11;7.88;;;7.15;;
12208;SDS011;6167;43.080;25.634;2023-07-31T14:25:40;7.75;;;7.25;;
12208;SDS011;6167;43.080;25.634;2023-07-31T14:28:07;8.32;;;7.60;;
12208;SDS011;6167;43.080;25.634;2023-07-31T14:30:34;7.88;;;7.07;;
12208;SDS011;6167;43.080;25.634;2023-07-31T14:33:02;7.82;;;7.18;;
12208;SDS011;6167;43.080;25.634;2023-07-31T14:35:29;11.90;;;10.80;;
12208;SDS011;6167;43.080;25.634;2023-07-31T14:37:56;9.45;;;8.65;;
12208;SDS011;6167;43.080;25.634;2023-07-31T14:40:23;9.82;;;8.98;;
12208;SDS011;6167;43.080;25.634;2023-07-31T14:42:53;8.38;;;7.57;;
12208;SDS011;6167;43.080;25.634;2023-07-31T14:45:22;9.05;;;8.00;;
12208;SDS011;6167;43.080;25.634;2023-07-31T14:47:50;8.15;;;7.53;;
12208;SDS011;6167;43.080;25.634;2023-07-31T14:50:21;8.40;;;7.70;;
12208;SDS011;6167;43.080;25.634;2023-07-31T14:52:50;8.15;;;7.60;;
12208;SDS011;6167;43.080;25.634;2023-07-31T14:55:18;9.10;;;8.15;;
12208;SDS011;6167;43.080;25.634;2023-07-31T14:57:45;11.40;;;9.27;;
12208;SDS011;6167;43.080;25.634;2023-07-31T15:00:21;10.73;;;9.63;;
12208;SDS011;6167;43.080;25.634;2023-07-31T15:02:49;11.63;;;10.15;;
12208;SDS011;6167;43.080;25.634;2023-07-31T15:05:17;10.63;;;9.73;;
12208;SDS011;6167;43.080;25.634;2023-07-31T15:07:45;11.15;;;10.15;;
12208;SDS011;6167;43.080;25.634;2023-07-31T15:10:12;12.07;;;10.75;;
12208;SDS011;6167;43.080;25.634;2023-07-31T15:12:39;11.57;;;10.63;;
12208;SDS011;6167;43.080;25.634;2023-07-31T15:15:07;12.65;;;11.57;;
12208;SDS011;6167;43.080;25.634;2023-07-31T15:17:34;13.50;;;12.40;;
12208;SDS011;6167;43.080;25.634;2023-07-31T15:20:01;14.80;;;13.43;;
12208;SDS011;6167;43.080;25.634;2023-07-31T15:22:28;28.40;;;17.48;;
12208;SDS011;6167;43.080;25.634;2023-07-31T15:25:04;15.93;;;14.32;;